createdAt,value
2023-04-26T00:01:09.888Z,99133.80
2023-04-26T00:03:42.220Z,99134.98
2023-04-26T00:06:14.851Z,99129.23
2023-04-26T00:08:46.512Z,99134.00
2023-04-26T00:11:18.463Z,99132.66
2023-04-26T00:13:50.119Z,99132.34
2023-04-26T00:16:21.857Z,99134.55
2023-04-26T00:18:54.904Z,99140.71
2023-04-26T00:21:26.888Z,99142.58
2023-04-26T00:23:58.737Z,99138.16
2023-04-26T00:26:30.449Z,99140.20
2023-04-26T00:29:03.459Z,99147.69
2023-04-26T00:31:35.058Z,99148.06
2023-04-26T00:34:06.992Z,99147.38
2023-04-26T00:36:38.700Z,99149.59
2023-04-26T00:39:10.568Z,99148.08
2023-04-26T00:41:42.265Z,99150.83
2023-04-26T00:44:13.847Z,99154.90
2023-04-26T00:46:45.737Z,99152.84
2023-04-26T00:49:22.125Z,99153.20
2023-04-26T00:51:53.728Z,99152.01
2023-04-26T00:54:25.769Z,99154.58
2023-04-26T00:56:57.528Z,99155.61
2023-04-26T00:59:29.157Z,99155.27
2023-04-26T01:02:02.433Z,99150.17
2023-04-26T01:04:34.330Z,99147.14
2023-04-26T01:07:06.797Z,99152.73
2023-04-26T01:09:39.448Z,99149.38
2023-04-26T01:12:11.179Z,99144.44
2023-04-26T01:14:43.901Z,99140.37
2023-04-26T01:17:15.548Z,99149.19
2023-04-26T01:19:50.432Z,99135.59
2023-04-26T01:22:22.939Z,99143.42
2023-04-26T01:24:54.818Z,99133.21
2023-04-26T01:27:26.953Z,99139.36
2023-04-26T01:29:58.562Z,99138.17
2023-04-26T01:32:30.397Z,99138.34
2023-04-26T01:35:02.284Z,99133.57
2023-04-26T01:37:34.432Z,99133.91
2023-04-26T01:40:07.165Z,99132.90
2023-04-26T01:42:40.910Z,99132.56
2023-04-26T01:45:13.164Z,99132.56
2023-04-26T01:48:02.716Z,99130.54
2023-04-26T01:50:35.969Z,99127.65
2023-04-26T01:53:07.706Z,99137.33
2023-04-26T01:55:39.682Z,99126.27
2023-04-26T01:58:13.257Z,99126.60
2023-04-26T02:00:44.889Z,99121.32
2023-04-26T02:03:16.494Z,99119.80
2023-04-26T02:05:48.057Z,99121.66
2023-04-26T02:08:20.830Z,99120.98
2023-04-26T02:10:52.625Z,99118.77
2023-04-26T02:13:24.856Z,99124.03
2023-04-26T02:15:56.619Z,99120.84
2023-04-26T02:18:29.956Z,99120.30
2023-04-26T02:21:01.666Z,99117.59
2023-04-26T02:23:39.029Z,99113.17
2023-04-26T02:26:11.729Z,99109.58
2023-04-26T02:28:43.933Z,99118.92
2023-04-26T02:31:15.495Z,99115.17
2023-04-26T02:33:47.240Z,99117.56
2023-04-26T02:36:18.895Z,99112.81
2023-04-26T02:38:51.248Z,99107.88
2023-04-26T02:41:23.522Z,99107.70
2023-04-26T02:43:55.271Z,99108.89
2023-04-26T02:46:27.083Z,99114.83
2023-04-26T02:48:58.913Z,99108.71
2023-04-26T02:51:30.486Z,99110.05
2023-04-26T02:54:04.612Z,99112.75
2023-04-26T02:56:36.854Z,99108.02
2023-04-26T02:59:08.624Z,99105.31
2023-04-26T03:01:40.472Z,99104.98
2023-04-26T03:04:12.270Z,99105.50
2023-04-26T03:06:44.340Z,99109.59
2023-04-26T03:09:16.157Z,99107.23
2023-04-26T03:11:50.226Z,99103.52
2023-04-26T03:14:22.276Z,99101.47
2023-04-26T03:16:54.644Z,99104.20
2023-04-26T03:19:27.240Z,99099.45
2023-04-26T03:21:58.919Z,99103.86
2023-04-26T03:24:30.931Z,99108.10
2023-04-26T03:27:02.899Z,99109.80
2023-04-26T03:29:34.877Z,99114.41
2023-04-26T03:32:07.452Z,99107.79
2023-04-26T03:34:39.520Z,99110.18
2023-04-26T03:37:11.122Z,99107.80
2023-04-26T03:39:42.838Z,99105.23
2023-04-26T03:42:14.631Z,99111.20
2023-04-26T03:44:46.619Z,99106.76
2023-04-26T03:47:18.268Z,99104.91
2023-04-26T03:49:50.353Z,99106.11
2023-04-26T03:52:21.963Z,99106.44
2023-04-26T03:54:53.700Z,99105.77
2023-04-26T03:57:25.780Z,99107.30
2023-04-26T03:59:58.233Z,99102.03
2023-04-26T04:02:30.306Z,99109.16
2023-04-26T04:05:02.484Z,99100.14
2023-04-26T04:07:34.913Z,99099.80
2023-04-26T04:10:07.542Z,99094.89
2023-04-26T04:12:39.699Z,99095.55
2023-04-26T04:15:11.958Z,99099.64
2023-04-26T04:17:46.026Z,99096.59
2023-04-26T04:20:18.534Z,99097.76
2023-04-26T04:22:51.295Z,99101.67
2023-04-26T04:25:23.078Z,99095.20
2023-04-26T04:27:55.065Z,99091.80
2023-04-26T04:30:27.456Z,99093.47
2023-04-26T04:33:00.476Z,99098.92
2023-04-26T04:35:34.284Z,99092.60
2023-04-26T04:38:08.353Z,99092.59
2023-04-26T04:40:40.499Z,99090.05
2023-04-26T04:43:12.444Z,99083.58
2023-04-26T04:45:44.517Z,99081.88
2023-04-26T04:48:18.860Z,99084.08
2023-04-26T04:50:51.039Z,99093.75
2023-04-26T04:53:23.770Z,99090.68
2023-04-26T04:55:55.462Z,99090.83
2023-04-26T04:58:28.102Z,99092.34
2023-04-26T05:01:01.537Z,99094.23
2023-04-26T05:03:35.283Z,99096.61
2023-04-26T05:06:08.273Z,99105.61
2023-04-26T05:08:40.135Z,99103.23
2023-04-26T05:11:12.707Z,99101.87
2023-04-26T05:13:47.618Z,99104.95
2023-04-26T05:16:19.653Z,99102.88
2023-04-26T05:18:51.790Z,99104.24
2023-04-26T05:21:24.119Z,99111.41
2023-04-26T05:23:55.879Z,99108.66
2023-04-26T05:26:27.523Z,99110.17
2023-04-26T05:29:19.337Z,99107.08
2023-04-26T05:32:09.228Z,99110.00
2023-04-26T05:34:45.522Z,99110.30
2023-04-26T05:37:18.904Z,99109.59
2023-04-26T05:39:51.120Z,99114.48
2023-04-26T05:42:23.098Z,99119.73
2023-04-26T05:44:59.626Z,99120.77
2023-04-26T05:47:32.287Z,99116.03
2023-04-26T05:50:04.019Z,99119.58
2023-04-26T05:52:36.791Z,99108.86
2023-04-26T05:55:09.122Z,99114.12
2023-04-26T05:57:41.670Z,99117.39
2023-04-26T06:00:15.640Z,99117.74
2023-04-26T06:02:48.246Z,99123.02
2023-04-26T06:05:21.793Z,99116.03
2023-04-26T06:07:54.329Z,99128.25
2023-04-26T06:10:26.042Z,99118.55
2023-04-26T06:12:57.852Z,99125.17
2023-04-26T06:15:35.528Z,99119.23
2023-04-26T06:18:07.295Z,99121.74
2023-04-26T06:20:39.046Z,99113.94
2023-04-26T06:23:10.963Z,99122.75
2023-04-26T06:25:44.249Z,99110.67
2023-04-26T06:28:16.516Z,99112.48
2023-04-26T06:30:48.757Z,99117.22
2023-04-26T06:33:20.809Z,99115.79
2023-04-26T06:35:52.529Z,99116.55
2023-04-26T06:38:24.481Z,99120.01
2023-04-26T06:40:56.129Z,99125.34
2023-04-26T06:43:28.042Z,99124.97
2023-04-26T06:46:04.240Z,99119.84
2023-04-26T06:48:35.994Z,99128.02
2023-04-26T06:51:08.945Z,99124.98
2023-04-26T06:53:41.603Z,99123.16
2023-04-26T06:56:13.236Z,99118.42
2023-04-26T06:59:02.681Z,99126.83
2023-04-26T07:01:35.808Z,99124.46
2023-04-26T07:04:09.457Z,99131.99
2023-04-26T07:06:41.216Z,99125.72
2023-04-26T07:09:13.256Z,99126.91
2023-04-26T07:11:47.693Z,99127.22
2023-04-26T07:14:19.395Z,99130.95
2023-04-26T07:16:51.403Z,99125.50
2023-04-26T07:19:23.520Z,99121.84
2023-04-26T07:21:55.231Z,99119.94
2023-04-26T07:24:26.803Z,99123.25
2023-04-26T07:26:58.666Z,99115.33
2023-04-26T07:29:30.330Z,99117.36
2023-04-26T07:32:02.139Z,99117.27
2023-04-26T07:34:34.673Z,99109.84
2023-04-26T07:37:07.278Z,99106.86
2023-04-26T07:39:38.860Z,99107.22
2023-04-26T07:42:10.464Z,99108.96
2023-04-26T07:44:42.168Z,99118.16
2023-04-26T07:47:14.623Z,99125.80
2023-04-26T07:49:47.923Z,99122.52
2023-04-26T07:52:19.630Z,99120.89
2023-04-26T07:54:51.873Z,99124.39
2023-04-26T07:57:24.054Z,99124.39
2023-04-26T07:59:55.617Z,99122.77
2023-04-26T08:02:36.696Z,99134.44
2023-04-26T08:05:00.961Z,99125.44
2023-04-26T08:07:33.329Z,99128.77
2023-04-26T08:10:05.212Z,99127.52
2023-04-26T08:12:37.354Z,99143.95
2023-04-26T08:15:09.874Z,99128.54
2023-04-26T08:17:42.089Z,99128.12
2023-04-26T08:20:14.278Z,99127.79
2023-04-26T08:22:46.048Z,99119.75
2023-04-26T08:25:17.550Z,99126.83
2023-04-26T08:27:49.315Z,99130.17
2023-04-26T08:30:21.507Z,99130.75
2023-04-26T08:32:53.279Z,99130.78
2023-04-26T08:35:24.936Z,99136.72
2023-04-26T08:37:56.908Z,99128.82
2023-04-26T08:40:28.610Z,99131.05
2023-04-26T08:43:01.008Z,99132.41
2023-04-26T08:45:33.162Z,99137.59
2023-04-26T08:48:09.554Z,99140.58
2023-04-26T08:50:41.984Z,99136.16
2023-04-26T08:53:19.502Z,99133.55
2023-04-26T08:55:51.232Z,99130.03
2023-04-26T08:58:22.776Z,99133.86
2023-04-26T09:00:54.389Z,99137.77
2023-04-26T09:03:27.085Z,99130.28
2023-04-26T09:05:59.435Z,99134.83
2023-04-26T09:08:31.194Z,99128.22
2023-04-26T09:11:04.553Z,99120.10
2023-04-26T09:13:36.909Z,99122.11
2023-04-26T09:16:08.760Z,99119.31
2023-04-26T09:18:48.907Z,99120.84
2023-04-26T09:21:20.564Z,99122.78
2023-04-26T09:24:06.722Z,99121.81
2023-04-26T09:26:38.795Z,99121.34
2023-04-26T09:29:14.206Z,99120.34
2023-04-26T09:31:49.515Z,99120.28
2023-04-26T09:34:20.994Z,99123.11
2023-04-26T09:36:59.038Z,99130.77
2023-04-26T09:39:35.874Z,99132.11
2023-04-26T09:42:12.710Z,99126.38
2023-04-26T09:44:44.446Z,99140.61
2023-04-26T09:47:15.992Z,99143.94
2023-04-26T09:49:50.546Z,99135.61
2023-04-26T09:52:22.390Z,99139.14
2023-04-26T09:54:55.078Z,99143.99
2023-04-26T10:00:13.279Z,99141.33
2023-04-26T10:02:45.226Z,99149.62
2023-04-26T10:05:28.294Z,99139.77
2023-04-26T10:08:00.248Z,99152.35
2023-04-26T10:10:33.505Z,99153.72
2023-04-26T10:13:07.506Z,99163.77
2023-04-26T10:15:40.945Z,99150.86
2023-04-26T10:18:13.274Z,99152.30
2023-04-26T10:21:06.556Z,99156.44
2023-04-26T10:23:38.798Z,99151.36
2023-04-26T10:26:14.013Z,99160.17
2023-04-26T10:28:55.359Z,99161.96
2023-04-26T10:31:25.996Z,99158.05
2023-04-26T10:34:19.883Z,99153.64
2023-04-26T10:37:13.532Z,99156.49
2023-04-26T10:40:06.627Z,99154.44
2023-04-26T10:42:40.492Z,99157.94
2023-04-26T10:45:30.531Z,99158.66
2023-04-26T10:48:14.189Z,99151.48
2023-04-26T10:51:11.824Z,99148.95
2023-04-26T10:53:51.440Z,99148.50
2023-04-26T10:56:29.412Z,99146.02
2023-04-26T11:01:48.613Z,99165.39
2023-04-26T11:04:20.378Z,99154.08
2023-04-26T11:06:56.251Z,99152.16
2023-04-26T11:09:39.876Z,99154.00
2023-04-26T11:12:15.084Z,99163.09
2023-04-26T11:14:47.274Z,99159.73
2023-04-26T11:17:20.400Z,99160.64
2023-04-26T11:19:52.369Z,99164.98
2023-04-26T11:22:24.477Z,99168.77
2023-04-26T11:24:56.088Z,99172.30
2023-04-26T11:27:28.880Z,99181.16
2023-04-26T11:30:08.403Z,99170.45
2023-04-26T11:32:42.080Z,99166.53
2023-04-26T11:35:14.936Z,99160.05
2023-04-26T11:37:47.102Z,99159.97
2023-04-26T11:40:18.902Z,99158.66
2023-04-26T11:42:50.642Z,99162.72
2023-04-26T11:45:22.372Z,99160.98
2023-04-26T11:47:54.062Z,99163.16
2023-04-26T11:50:27.000Z,99161.94
2023-04-26T11:52:59.858Z,99166.05
2023-04-26T11:55:35.991Z,99171.10
2023-04-26T11:58:12.833Z,99161.02
2023-04-26T12:01:01.998Z,99167.48
2023-04-26T12:03:37.043Z,99161.54
2023-04-26T12:06:09.513Z,99159.00
2023-04-26T12:08:42.239Z,99160.09
2023-04-26T12:11:14.115Z,99156.84
2023-04-26T12:13:47.590Z,99154.59
2023-04-26T12:16:26.256Z,99152.55
2023-04-26T12:18:53.494Z,99154.30
2023-04-26T12:21:28.184Z,99154.86
2023-04-26T12:23:59.333Z,99155.86
2023-04-26T12:26:46.670Z,99154.20
2023-04-26T12:29:18.564Z,99151.06
2023-04-26T12:31:50.292Z,99154.52
2023-04-26T12:34:22.218Z,99147.19
2023-04-26T12:36:54.113Z,99151.16
2023-04-26T12:39:25.752Z,99152.92
2023-04-26T12:41:57.372Z,99156.77
2023-04-26T12:44:29.256Z,99157.33
2023-04-26T12:47:00.882Z,99157.92
2023-04-26T12:49:32.815Z,99157.81
2023-04-26T12:52:04.939Z,99159.58
2023-04-26T12:54:37.440Z,99170.66
2023-04-26T12:57:10.202Z,99162.48
2023-04-26T12:59:42.094Z,99166.86
2023-04-26T13:02:17.108Z,99167.28
2023-04-26T13:04:49.622Z,99167.86
2023-04-26T13:07:22.011Z,99170.37
2023-04-26T13:09:54.116Z,99177.67
2023-04-26T13:12:26.004Z,99180.73
2023-04-26T13:14:58.163Z,99173.98
2023-04-26T13:17:30.088Z,99174.75
2023-04-26T13:20:01.687Z,99173.27
2023-04-26T13:22:33.561Z,99166.62
2023-04-26T13:25:17.178Z,99169.03
2023-04-26T13:27:49.245Z,99170.72
2023-04-26T13:30:21.267Z,99166.94
2023-04-26T13:32:54.160Z,99170.81
2023-04-26T13:35:26.149Z,99170.63
2023-04-26T13:37:57.994Z,99168.71
2023-04-26T13:40:29.658Z,99177.11
2023-04-26T13:43:01.507Z,99176.13
2023-04-26T13:45:36.386Z,99175.52
2023-04-26T13:48:08.774Z,99171.16
2023-04-26T13:50:40.965Z,99173.61
2023-04-26T13:53:14.187Z,99169.56
2023-04-26T13:55:46.764Z,99166.89
2023-04-26T13:58:18.528Z,99167.09
2023-04-26T14:00:50.528Z,99180.81
2023-04-26T14:03:23.371Z,99181.39
2023-04-26T14:08:39.014Z,99182.04
2023-04-26T14:11:12.273Z,99181.59
2023-04-26T14:13:44.146Z,99190.16
2023-04-26T14:16:17.265Z,99180.84
2023-04-26T14:18:49.287Z,99185.14
2023-04-26T14:21:21.025Z,99184.82
2023-04-26T14:23:52.889Z,99183.27
2023-04-26T14:26:26.405Z,99189.91
2023-04-26T14:28:58.125Z,99194.01
2023-04-26T14:31:30.672Z,99191.64
2023-04-26T14:34:02.668Z,99188.97
2023-04-26T14:36:34.788Z,99191.88
2023-04-26T14:39:06.940Z,99199.27
2023-04-26T14:41:39.321Z,99196.58
2023-04-26T14:44:11.031Z,99196.65
2023-04-26T14:46:43.227Z,99195.19
2023-04-26T14:49:14.856Z,99195.74
2023-04-26T14:51:47.120Z,99193.52
2023-04-26T14:54:19.741Z,99191.28
2023-04-26T14:56:51.932Z,99199.42
2023-04-26T14:59:23.724Z,99200.42
2023-04-26T15:01:56.530Z,99195.52
2023-04-26T15:04:28.953Z,99202.52
2023-04-26T15:07:01.122Z,99195.05
2023-04-26T15:09:33.388Z,99194.38
2023-04-26T15:12:16.298Z,99202.02
2023-04-26T15:14:47.896Z,99191.95
2023-04-26T15:17:20.085Z,99191.79
2023-04-26T15:19:51.794Z,99188.41
2023-04-26T15:22:23.766Z,99195.38
2023-04-26T15:24:55.480Z,99191.55
2023-04-26T15:27:27.364Z,99189.18
2023-04-26T15:29:59.440Z,99182.86
2023-04-26T15:32:32.950Z,99184.41
2023-04-26T15:35:05.484Z,99178.45
2023-04-26T15:37:38.723Z,99185.27
2023-04-26T15:40:12.214Z,99179.67
2023-04-26T15:42:44.180Z,99185.69
2023-04-26T15:45:16.332Z,99177.00
2023-04-26T15:47:48.248Z,99178.70
2023-04-26T15:50:20.099Z,99178.68
2023-04-26T15:52:51.860Z,99181.55
2023-04-26T15:55:23.782Z,99172.67
2023-04-26T15:57:55.656Z,99178.63
2023-04-26T16:00:28.477Z,99178.95
2023-04-26T16:03:00.398Z,99188.19
2023-04-26T16:05:32.658Z,99188.69
2023-04-26T16:08:05.801Z,99187.86
2023-04-26T16:10:38.833Z,99189.92
2023-04-26T16:13:11.702Z,99188.60
2023-04-26T16:15:43.807Z,99188.97
2023-04-26T16:18:16.645Z,99191.52
2023-04-26T16:20:52.009Z,99194.70
2023-04-26T16:23:23.977Z,99206.16
2023-04-26T16:25:57.207Z,99199.56
2023-04-26T16:28:29.206Z,99202.66
2023-04-26T16:31:01.433Z,99203.84
2023-04-26T16:33:33.107Z,99207.77
2023-04-26T16:36:04.810Z,99201.84
2023-04-26T16:38:36.649Z,99202.20
2023-04-26T16:41:09.341Z,99203.44
2023-04-26T16:43:41.095Z,99202.57
2023-04-26T16:46:13.308Z,99210.25
2023-04-26T16:48:45.181Z,99206.98
2023-04-26T16:51:16.901Z,99203.94
2023-04-26T16:53:48.718Z,99204.48
2023-04-26T16:56:20.938Z,99200.44
2023-04-26T16:58:52.658Z,99201.98
2023-04-26T17:01:24.569Z,99202.34
2023-04-26T17:03:57.211Z,99203.92
2023-04-26T17:06:29.177Z,99208.02
2023-04-26T17:09:01.111Z,99200.73
2023-04-26T17:11:34.191Z,99209.10
2023-04-26T17:14:06.630Z,99209.75
2023-04-26T17:16:39.398Z,99211.48
2023-04-26T17:19:12.138Z,99215.42
2023-04-26T17:21:44.460Z,99209.83
2023-04-26T17:24:16.063Z,99210.51
2023-04-26T17:26:47.990Z,99211.55
2023-04-26T17:29:19.696Z,99212.59
2023-04-26T17:31:51.560Z,99221.13
2023-04-26T17:34:23.300Z,99219.41
2023-04-26T17:36:55.031Z,99218.76
2023-04-26T17:39:26.819Z,99229.98
2023-04-26T17:41:58.515Z,99236.13
2023-04-26T17:44:30.675Z,99234.05
2023-04-26T17:47:02.350Z,99235.23
2023-04-26T17:49:34.120Z,99235.73
2023-04-26T17:52:06.059Z,99236.05
2023-04-26T17:54:38.289Z,99234.01
2023-04-26T17:57:09.808Z,99235.02
2023-04-26T17:59:41.632Z,99236.05
2023-04-26T18:02:13.896Z,99236.77
2023-04-26T18:04:47.303Z,99242.58
2023-04-26T18:07:20.318Z,99236.77
2023-04-26T18:09:52.558Z,99244.30
2023-04-26T18:12:25.371Z,99248.03
2023-04-26T18:14:57.139Z,99252.84
2023-04-26T18:17:29.650Z,99256.57
2023-04-26T18:20:01.554Z,99257.78
2023-04-26T18:22:33.637Z,99257.14
2023-04-26T18:25:06.795Z,99261.87
2023-04-26T18:27:39.326Z,99260.66
2023-04-26T18:30:13.222Z,99263.03
2023-04-26T18:32:45.767Z,99263.03
2023-04-26T18:35:18.233Z,99267.50
2023-04-26T18:37:50.105Z,99270.44
2023-04-26T18:40:22.090Z,99268.39
2023-04-26T18:42:54.041Z,99273.52
2023-04-26T18:45:25.982Z,99275.41
2023-04-26T18:47:57.768Z,99269.28
2023-04-26T18:50:30.381Z,99271.50
2023-04-26T18:53:02.316Z,99273.39
2023-04-26T18:55:34.170Z,99270.67
2023-04-26T18:58:06.298Z,99277.13
2023-04-26T19:00:38.422Z,99279.20
2023-04-26T19:03:10.151Z,99284.98
2023-04-26T19:05:43.364Z,99280.56
2023-04-26T19:08:17.041Z,99283.61
2023-04-26T19:10:48.815Z,99281.92
2023-04-26T19:13:21.164Z,99274.61
2023-04-26T19:15:53.196Z,99274.92
2023-04-26T19:18:27.291Z,99259.77
2023-04-26T19:20:58.974Z,99260.95
2023-04-26T19:23:32.528Z,99268.30
2023-04-26T19:26:06.812Z,99270.31
2023-04-26T19:28:39.671Z,99268.59
2023-04-26T19:31:11.398Z,99271.33
2023-04-26T19:33:44.891Z,99261.76
2023-04-26T19:36:16.797Z,99264.45
2023-04-26T19:38:48.634Z,99271.24
2023-04-26T19:41:20.524Z,99269.52
2023-04-26T19:43:52.515Z,99265.94
2023-04-26T19:46:24.304Z,99275.30
2023-04-26T19:48:56.448Z,99283.48
2023-04-26T19:51:28.447Z,99279.23
2023-04-26T19:54:00.190Z,99281.49
2023-04-26T19:56:32.185Z,99281.31
2023-04-26T19:59:05.050Z,99277.43
2023-04-26T20:01:37.631Z,99261.43
2023-04-26T20:04:09.568Z,99268.95
2023-04-26T20:06:41.436Z,99268.59
2023-04-26T20:09:13.417Z,99265.90
2023-04-26T20:11:45.068Z,99273.75
2023-04-26T20:14:17.100Z,99264.89
2023-04-26T20:16:48.971Z,99268.50
2023-04-26T20:19:21.188Z,99273.59
2023-04-26T20:21:52.806Z,99267.31
2023-04-26T20:24:26.505Z,99270.04
2023-04-26T20:26:58.469Z,99260.31
2023-04-26T20:29:30.205Z,99259.13
2023-04-26T20:32:01.976Z,99256.76
2023-04-26T20:34:34.038Z,99267.50
2023-04-26T20:37:06.046Z,99273.49
2023-04-26T20:39:38.141Z,99268.04
2023-04-26T20:42:09.833Z,99273.47
2023-04-26T20:44:41.754Z,99274.83
2023-04-26T20:47:13.818Z,99271.06
2023-04-26T20:49:45.489Z,99274.47
2023-04-26T20:52:17.866Z,99273.80
2023-04-26T20:54:49.678Z,99274.48
2023-04-26T20:57:21.405Z,99269.86
2023-04-26T20:59:53.028Z,99278.03
2023-04-26T21:02:25.222Z,99278.73
2023-04-26T21:04:57.123Z,99285.37
2023-04-26T21:07:29.186Z,99281.98
2023-04-26T21:10:01.061Z,99284.89
2023-04-26T21:12:34.341Z,99282.02
2023-04-26T21:15:07.487Z,99281.66
2023-04-26T21:17:40.791Z,99287.44
2023-04-26T21:20:13.436Z,99293.55
2023-04-26T21:22:45.375Z,99312.14
2023-04-26T21:25:19.591Z,99308.29
2023-04-26T21:27:51.926Z,99300.69
2023-04-26T21:30:23.984Z,99310.21
2023-04-26T21:32:56.724Z,99319.38
2023-04-26T21:35:28.863Z,99319.89
2023-04-26T21:38:00.754Z,99320.90
2023-04-26T21:40:32.637Z,99319.18
2023-04-26T21:43:05.599Z,99312.22
2023-04-26T21:45:37.925Z,99310.99
2023-04-26T21:48:09.938Z,99309.13
2023-04-26T21:50:42.280Z,99317.25
2023-04-26T21:53:14.228Z,99320.99
2023-04-26T21:55:47.628Z,99319.42
2023-04-26T21:58:20.783Z,99322.47
2023-04-26T22:00:52.739Z,99328.21
2023-04-26T22:03:25.325Z,99334.62
2023-04-26T22:05:57.442Z,99334.08
2023-04-26T22:08:29.579Z,99334.56
2023-04-26T22:11:01.776Z,99349.50
2023-04-26T22:13:33.747Z,99357.25
2023-04-26T22:16:06.493Z,99355.50
2023-04-26T22:18:38.407Z,99367.31
2023-04-26T22:21:10.538Z,99361.63
2023-04-26T22:23:42.375Z,99368.20
2023-04-26T22:26:14.773Z,99365.09
2023-04-26T22:28:47.489Z,99382.89
2023-04-26T22:31:19.428Z,99376.52
2023-04-26T22:33:51.661Z,99378.79
2023-04-26T22:36:23.309Z,99381.81
2023-04-26T22:38:55.335Z,99387.23
2023-04-26T22:41:27.188Z,99392.33
2023-04-26T22:43:58.792Z,99397.38
2023-04-26T22:46:30.592Z,99399.91
2023-04-26T22:49:02.466Z,99395.96
2023-04-26T22:51:34.960Z,99401.78
2023-04-26T22:54:07.904Z,99399.16
2023-04-26T22:56:39.695Z,99386.61
2023-04-26T22:59:12.245Z,99394.03
2023-04-26T23:01:44.417Z,99393.02
2023-04-26T23:04:16.129Z,99392.61
2023-04-26T23:06:47.881Z,99398.00
2023-04-26T23:09:19.670Z,99395.89
2023-04-26T23:11:52.018Z,99398.87
2023-04-26T23:14:23.731Z,99396.77
2023-04-26T23:16:55.719Z,99403.98
2023-04-26T23:19:28.146Z,99400.18
2023-04-26T23:22:01.267Z,99397.89
2023-04-26T23:24:33.232Z,99398.14
2023-04-26T23:27:05.142Z,99397.09
2023-04-26T23:29:36.919Z,99395.39
2023-04-26T23:32:08.961Z,99402.99
2023-04-26T23:34:41.378Z,99398.20
2023-04-26T23:37:13.203Z,99393.67
2023-04-26T23:39:45.250Z,99403.45
2023-04-26T23:42:16.968Z,99411.25
2023-04-26T23:44:48.822Z,99403.72
2023-04-26T23:47:21.634Z,99396.70
2023-04-26T23:49:53.709Z,99396.56
2023-04-26T23:52:26.085Z,99395.73
2023-04-26T23:54:57.988Z,99403.56
2023-04-26T23:57:29.971Z,99393.81
